createdAt,value
2018-05-03T00:01:54.910Z,18.50
2018-05-03T00:07:58.352Z,18.50
2018-05-03T00:14:02.473Z,18.40
2018-05-03T00:20:05.884Z,18.40
2018-05-03T00:26:10.002Z,18.40
2018-05-03T00:32:13.475Z,18.40
2018-05-03T00:38:17.004Z,18.40
2018-05-03T00:44:20.397Z,18.40
2018-05-03T00:50:24.572Z,18.30
2018-05-03T00:56:28.098Z,18.30
2018-05-03T01:02:31.472Z,18.30
2018-05-03T01:08:35.597Z,18.30
2018-05-03T01:14:38.983Z,18.30
2018-05-03T01:20:43.237Z,18.30
2018-05-03T01:26:46.614Z,18.30
2018-05-03T01:32:49.977Z,18.30
2018-05-03T01:38:53.470Z,18.30
2018-05-03T01:44:56.955Z,18.30
2018-05-03T01:51:01.120Z,18.30
2018-05-03T01:57:05.301Z,18.20
2018-05-03T02:03:08.825Z,18.20
2018-05-03T02:09:13.005Z,18.30
2018-05-03T02:15:17.236Z,18.30
2018-05-03T02:21:20.711Z,18.30
2018-05-03T02:27:24.230Z,18.30
2018-05-03T02:33:27.717Z,18.30
2018-05-03T02:39:31.883Z,18.30
2018-05-03T02:45:36.071Z,18.30
2018-05-03T02:51:39.601Z,18.20
2018-05-03T02:58:06.503Z,18.30
2018-05-03T03:04:33.414Z,18.20
2018-05-03T03:17:48.731Z,18.20
2018-05-03T03:24:15.783Z,18.20
2018-05-03T03:30:43.507Z,18.20
2018-05-03T03:37:16.430Z,18.20
2018-05-03T03:43:37.808Z,18.20
2018-05-03T03:49:42.073Z,18.10
2018-05-03T03:55:45.607Z,18.10
2018-05-03T04:01:49.100Z,18.10
2018-05-03T04:07:52.632Z,18.10
2018-05-03T04:13:56.867Z,18.10
2018-05-03T04:20:18.167Z,18.10
2018-05-03T04:26:21.648Z,18.20
2018-05-03T04:32:25.089Z,18.20
2018-05-03T04:38:28.623Z,18.20
2018-05-03T04:44:32.807Z,18.30
2018-05-03T04:50:37.032Z,18.40
2018-05-03T04:56:40.422Z,18.30
2018-05-03T05:02:44.596Z,18.40
2018-05-03T05:08:48.125Z,18.40
2018-05-03T05:14:52.293Z,18.40
2018-05-03T05:20:56.401Z,18.50
2018-05-03T05:26:59.966Z,18.50
2018-05-03T05:33:04.077Z,18.50
2018-05-03T05:39:07.449Z,18.50
2018-05-03T05:45:10.943Z,18.60
2018-05-03T05:51:15.250Z,18.60
2018-05-03T05:57:18.683Z,18.50
2018-05-03T06:03:22.121Z,18.60
2018-05-03T06:09:25.648Z,18.60
2018-05-03T06:15:29.944Z,18.70
2018-05-03T06:21:33.472Z,18.60
2018-05-03T06:27:37.594Z,18.90
2018-05-03T06:33:41.007Z,18.80
2018-05-03T06:39:44.385Z,19.00
2018-05-03T06:45:47.797Z,19.10
2018-05-03T06:51:52.160Z,19.20
2018-05-03T06:57:56.384Z,19.20
2018-05-03T07:03:59.857Z,19.10
2018-05-03T07:10:03.448Z,19.20
2018-05-03T07:16:07.617Z,19.20
2018-05-03T07:22:11.044Z,19.20
2018-05-03T07:28:15.226Z,19.10
2018-05-03T07:34:19.401Z,19.00
2018-05-03T07:40:23.749Z,19.00
2018-05-03T07:46:28.046Z,18.90
2018-05-03T07:52:31.580Z,18.90
2018-05-03T07:58:35.148Z,18.90
2018-05-03T08:04:38.675Z,18.90
2018-05-03T08:10:42.862Z,18.80
2018-05-03T08:16:47.112Z,18.80
2018-05-03T08:22:51.309Z,18.70
2018-05-03T08:28:54.753Z,18.70
2018-05-03T08:34:58.285Z,18.60
2018-05-03T08:41:01.757Z,18.40
2018-05-03T08:47:05.182Z,18.20
2018-05-03T08:53:08.552Z,18.10
2018-05-03T08:59:12.082Z,18.00
2018-05-03T09:05:15.551Z,17.90
2018-05-03T09:11:19.718Z,17.80
2018-05-03T09:17:24.008Z,17.90
2018-05-03T09:23:27.524Z,17.90
2018-05-03T09:29:31.175Z,17.90
2018-05-03T09:35:34.645Z,17.90
2018-05-03T09:41:38.790Z,17.90
2018-05-03T09:47:42.315Z,17.90
2018-05-03T09:53:45.714Z,17.90
2018-05-03T09:59:49.167Z,17.90
2018-05-03T10:05:52.603Z,17.90
2018-05-03T10:11:56.128Z,17.90
2018-05-03T10:17:59.566Z,17.90
2018-05-03T10:24:03.016Z,17.90
2018-05-03T10:30:07.269Z,17.80
2018-05-03T10:36:11.486Z,17.90
2018-05-03T10:42:14.972Z,17.80
2018-05-03T10:48:18.346Z,17.90
2018-05-03T10:54:22.463Z,17.80
2018-05-03T11:00:25.870Z,17.80
2018-05-03T11:06:29.396Z,17.80
2018-05-03T11:12:32.932Z,17.80
2018-05-03T11:18:36.418Z,17.70
2018-05-03T11:24:40.673Z,17.70
2018-05-03T11:30:44.857Z,17.80
2018-05-03T11:36:49.154Z,17.80
2018-05-03T11:42:52.521Z,17.80
2018-05-03T11:48:56.006Z,17.80
2018-05-03T11:54:59.460Z,17.90
2018-05-03T12:01:02.834Z,17.90
2018-05-03T12:07:06.362Z,17.90
2018-05-03T12:13:10.637Z,17.90
2018-05-03T12:19:14.798Z,17.80
2018-05-03T12:25:18.978Z,17.80
2018-05-03T12:31:23.234Z,17.80
2018-05-03T12:37:27.509Z,17.80
2018-05-03T12:43:31.777Z,17.70
2018-05-03T12:49:35.939Z,17.70
2018-05-03T12:55:39.497Z,17.70
2018-05-03T13:01:43.676Z,17.70
2018-05-03T13:07:47.844Z,17.70
2018-05-03T13:13:52.011Z,17.70
2018-05-03T13:19:56.250Z,17.70
2018-05-03T13:25:59.824Z,17.70
2018-05-03T13:32:04.098Z,17.80
2018-05-03T13:38:08.356Z,17.70
2018-05-03T13:44:11.830Z,17.70
2018-05-03T13:50:15.274Z,17.80
2018-05-03T13:56:19.442Z,17.80
2018-05-03T14:02:23.611Z,18.00
2018-05-03T14:08:27.061Z,17.90
2018-05-03T14:14:30.597Z,18.10
2018-05-03T14:20:34.746Z,18.20
2018-05-03T14:26:38.306Z,18.20
2018-05-03T14:32:41.867Z,18.30
2018-05-03T14:38:46.135Z,18.30
2018-05-03T14:44:50.291Z,18.30
2018-05-03T14:50:53.964Z,18.30
2018-05-03T14:56:58.278Z,18.30
2018-05-03T15:03:01.770Z,18.30
2018-05-03T15:09:06.098Z,18.30
2018-05-03T15:15:09.577Z,18.30
2018-05-03T15:21:13.074Z,18.40
2018-05-03T15:27:16.484Z,18.40
2018-05-03T15:33:19.896Z,18.40
2018-05-03T15:39:23.397Z,18.50
2018-05-03T15:45:26.954Z,18.60
2018-05-03T15:51:31.326Z,18.60
2018-05-03T15:57:35.516Z,18.60
2018-05-03T16:03:38.982Z,18.60
2018-05-03T16:09:42.468Z,18.60
2018-05-03T16:15:45.969Z,18.60
2018-05-03T16:21:49.501Z,18.60
2018-05-03T16:27:53.212Z,18.60
2018-05-03T16:33:57.475Z,18.70
2018-05-03T16:40:01.726Z,18.70
2018-05-03T16:46:05.218Z,18.60
2018-05-03T16:52:08.672Z,18.70
2018-05-03T16:58:12.107Z,18.70
2018-05-03T17:04:15.638Z,18.70
2018-05-03T17:10:19.771Z,18.70
2018-05-03T17:16:23.237Z,18.70
2018-05-03T17:22:26.793Z,18.80
2018-05-03T17:28:30.201Z,18.80
2018-05-03T17:34:33.706Z,18.90
2018-05-03T17:40:37.990Z,19.00
2018-05-03T17:46:42.390Z,19.10
2018-05-03T17:52:45.902Z,19.10
2018-05-03T17:58:49.376Z,19.20
2018-05-03T18:04:52.820Z,19.20
2018-05-03T18:10:57.070Z,19.30
2018-05-03T18:17:01.196Z,19.30
2018-05-03T18:23:04.609Z,19.30
2018-05-03T18:29:08.137Z,19.30
2018-05-03T18:35:11.730Z,19.30
2018-05-03T18:41:15.141Z,19.30
2018-05-03T18:47:19.357Z,19.30
2018-05-03T18:53:22.770Z,19.30
2018-05-03T18:59:26.945Z,19.40
2018-05-03T19:05:30.373Z,19.30
2018-05-03T19:11:34.636Z,19.40
2018-05-03T19:17:38.114Z,19.30
2018-05-03T19:23:41.670Z,19.40
2018-05-03T19:29:45.915Z,19.40
2018-05-03T19:35:50.188Z,19.40
2018-05-03T19:41:54.454Z,19.40
2018-05-03T19:47:58.725Z,19.30
2018-05-03T19:54:02.916Z,19.30
2018-05-03T20:00:06.446Z,19.20
2018-05-03T20:06:10.720Z,19.10
2018-05-03T20:12:14.880Z,19.10
2018-05-03T20:18:19.154Z,19.00
2018-05-03T20:24:23.340Z,19.00
2018-05-03T20:30:26.866Z,19.00
2018-05-03T20:36:31.134Z,18.90
2018-05-03T20:42:35.404Z,18.80
2018-05-03T20:48:38.900Z,18.80
2018-05-03T20:54:42.543Z,18.90
2018-05-03T21:00:45.976Z,18.90
2018-05-03T21:06:50.228Z,18.80
2018-05-03T21:12:54.363Z,18.80
2018-05-03T21:18:57.775Z,18.80
2018-05-03T21:25:01.294Z,18.80
2018-05-03T21:31:05.467Z,18.70
2018-05-03T21:37:09.630Z,18.70
2018-05-03T21:43:13.905Z,18.60
2018-05-03T21:49:18.118Z,18.60
2018-05-03T21:55:21.617Z,18.60
2018-05-03T22:01:25.103Z,18.60
2018-05-03T22:07:28.619Z,18.50
2018-05-03T22:13:32.173Z,18.50
2018-05-03T22:19:37.059Z,18.40
2018-05-03T22:25:41.229Z,18.40
2018-05-03T22:31:45.409Z,18.30
2018-05-03T22:37:49.599Z,18.30
2018-05-03T22:43:53.003Z,18.30
2018-05-03T22:49:57.192Z,18.30
2018-05-03T22:56:01.441Z,18.30
2018-05-03T23:02:05.713Z,18.20
2018-05-03T23:08:09.022Z,18.20
2018-05-03T23:14:12.361Z,18.20
2018-05-03T23:20:15.637Z,18.20
2018-05-03T23:26:18.912Z,18.20
2018-05-03T23:32:22.936Z,18.20
2018-05-03T23:38:26.212Z,18.20
2018-05-03T23:44:30.238Z,18.10
2018-05-03T23:50:33.514Z,18.10
2018-05-03T23:56:36.808Z,18.10
